createdAt,value
2018-07-15T00:00:50.704Z,15.97
2018-07-15T00:02:49.883Z,15.96
2018-07-15T00:04:50.505Z,15.92
2018-07-15T00:06:49.915Z,15.89
2018-07-15T00:08:50.145Z,15.84
2018-07-15T00:10:50.287Z,15.82
2018-07-15T00:12:50.641Z,15.81
2018-07-15T00:14:50.924Z,15.82
2018-07-15T00:16:50.213Z,15.79
2018-07-15T00:18:50.658Z,15.75
2018-07-15T00:20:50.880Z,15.72
2018-07-15T00:22:50.010Z,15.70
2018-07-15T00:24:50.260Z,15.67
2018-07-15T00:26:50.543Z,15.62
2018-07-15T00:28:50.712Z,15.61
2018-07-15T00:30:49.921Z,15.60
2018-07-15T00:32:50.061Z,15.57
2018-07-15T00:34:50.449Z,15.54
2018-07-15T00:36:50.711Z,15.50
2018-07-15T00:38:50.016Z,15.48
2018-07-15T00:40:50.264Z,15.43
2018-07-15T00:42:50.413Z,15.38
2018-07-15T00:44:50.552Z,15.37
2018-07-15T00:46:49.933Z,15.37
2018-07-15T00:48:50.130Z,15.34
2018-07-15T00:50:50.232Z,15.30
2018-07-15T00:52:50.574Z,15.27
2018-07-15T00:54:50.713Z,15.24
2018-07-15T00:56:49.970Z,15.26
2018-07-15T00:58:50.126Z,15.23
2018-07-15T01:00:50.310Z,15.21
2018-07-15T01:02:50.269Z,15.18
2018-07-15T01:04:50.764Z,15.13
2018-07-15T01:06:50.063Z,15.10
2018-07-15T01:08:50.196Z,15.05
2018-07-15T01:10:50.373Z,15.01
2018-07-15T01:12:50.522Z,14.99
2018-07-15T01:14:50.609Z,14.96
2018-07-15T01:16:49.882Z,14.95
2018-07-15T01:18:50.427Z,14.93
2018-07-15T01:20:50.566Z,14.93
2018-07-15T01:22:49.964Z,14.91
2018-07-15T01:24:50.083Z,14.89
2018-07-15T01:26:50.402Z,14.83
2018-07-15T01:28:50.774Z,14.77
2018-07-15T01:30:49.965Z,14.75
2018-07-15T01:32:50.144Z,14.74
2018-07-15T01:34:50.572Z,14.72
2018-07-15T01:36:50.838Z,14.69
2018-07-15T01:38:50.148Z,14.66
2018-07-15T01:40:50.319Z,14.63
2018-07-15T01:42:50.462Z,14.60
2018-07-15T01:44:50.602Z,14.58
2018-07-15T01:46:49.946Z,14.57
2018-07-15T01:48:50.144Z,14.53
2018-07-15T01:50:50.312Z,14.49
2018-07-15T01:52:50.442Z,14.48
2018-07-15T01:54:50.662Z,14.43
2018-07-15T01:56:49.920Z,14.37
2018-07-15T01:58:50.090Z,14.34
2018-07-15T02:00:50.262Z,14.33
2018-07-15T02:02:50.398Z,14.31
2018-07-15T02:04:50.822Z,14.28
2018-07-15T02:06:50.044Z,14.25
2018-07-15T02:08:50.384Z,14.25
2018-07-15T02:10:50.553Z,14.23
2018-07-15T02:12:49.886Z,14.22
2018-07-15T02:14:50.085Z,14.18
2018-07-15T02:16:50.477Z,14.14
2018-07-15T02:18:50.705Z,14.10
2018-07-15T02:20:49.963Z,14.07
2018-07-15T02:22:50.127Z,14.05
2018-07-15T02:24:50.271Z,14.02
2018-07-15T02:26:50.571Z,13.98
2018-07-15T02:28:50.682Z,13.96
2018-07-15T02:30:49.928Z,13.93
2018-07-15T02:32:50.206Z,13.90
2018-07-15T02:34:50.814Z,13.84
2018-07-15T02:36:50.631Z,13.79
2018-07-15T02:38:50.021Z,13.75
2018-07-15T02:40:50.221Z,13.75
2018-07-15T02:42:50.603Z,13.76
2018-07-15T02:44:49.870Z,13.73
2018-07-15T02:46:50.455Z,13.71
2018-07-15T02:48:50.651Z,13.72
2018-07-15T02:50:49.892Z,13.70
2018-07-15T02:52:50.178Z,13.68
2018-07-15T02:54:50.283Z,13.66
2018-07-15T02:56:50.647Z,13.65
2018-07-15T02:58:50.779Z,13.63
2018-07-15T03:00:50.052Z,13.61
2018-07-15T03:02:50.206Z,13.60
2018-07-15T03:04:50.544Z,13.60
2018-07-15T03:06:49.950Z,13.60
2018-07-15T03:08:50.130Z,13.61
2018-07-15T03:10:50.276Z,13.59
2018-07-15T03:12:50.572Z,13.57
2018-07-15T03:14:49.875Z,13.54
2018-07-15T03:16:50.224Z,13.52
2018-07-15T03:18:50.411Z,13.49
2018-07-15T03:20:50.567Z,13.47
2018-07-15T03:22:50.788Z,13.46
2018-07-15T03:24:50.110Z,13.45
2018-07-15T03:26:50.438Z,13.46
2018-07-15T03:28:50.579Z,13.44
2018-07-15T03:30:50.723Z,13.42
2018-07-15T03:32:49.923Z,13.42
2018-07-15T03:34:50.468Z,13.43
2018-07-15T03:36:50.751Z,13.45
2018-07-15T03:38:49.920Z,13.47
2018-07-15T03:40:50.107Z,13.49
2018-07-15T03:42:50.278Z,13.51
2018-07-15T03:44:50.378Z,13.52
2018-07-15T03:46:50.764Z,13.52
2018-07-15T03:48:49.974Z,13.50
2018-07-15T03:50:50.095Z,13.51
2018-07-15T03:52:50.339Z,13.52
2018-07-15T03:54:50.569Z,13.54
2018-07-15T03:56:49.960Z,13.55
2018-07-15T03:58:50.212Z,13.56
2018-07-15T04:00:51.084Z,13.56
2018-07-15T04:02:50.324Z,13.55
2018-07-15T04:04:50.736Z,13.57
2018-07-15T04:06:50.107Z,13.61
2018-07-15T04:08:50.642Z,13.62
2018-07-15T04:10:49.954Z,13.63
2018-07-15T04:12:50.114Z,13.65
2018-07-15T04:14:50.254Z,13.68
2018-07-15T04:16:50.504Z,13.74
2018-07-15T04:18:50.703Z,13.79
2018-07-15T04:20:49.954Z,13.82
2018-07-15T04:22:50.091Z,13.86
2018-07-15T04:24:50.231Z,13.90
2018-07-15T04:26:50.639Z,13.95
2018-07-15T04:28:50.896Z,14.02
2018-07-15T04:30:50.140Z,14.07
2018-07-15T04:32:50.295Z,14.16
2018-07-15T04:34:50.614Z,14.23
2018-07-15T04:36:49.974Z,14.31
2018-07-15T04:38:50.112Z,14.39
2018-07-15T04:40:50.272Z,14.45
2018-07-15T04:42:50.382Z,14.57
2018-07-15T04:44:50.638Z,14.62
2018-07-15T04:46:49.975Z,14.76
2018-07-15T04:48:50.118Z,14.83
2018-07-15T04:50:50.253Z,14.92
2018-07-15T04:52:50.406Z,15.05
2018-07-15T04:54:50.489Z,15.14
2018-07-15T04:56:50.823Z,15.27
2018-07-15T04:58:50.010Z,15.38
2018-07-15T05:00:50.177Z,15.50
2018-07-15T05:02:50.312Z,15.61
2018-07-15T05:04:50.694Z,15.70
2018-07-15T05:06:50.162Z,15.82
2018-07-15T05:08:50.299Z,15.92
2018-07-15T05:10:50.483Z,16.03
2018-07-15T05:12:50.615Z,16.12
2018-07-15T05:14:50.707Z,16.24
2018-07-15T05:16:50.242Z,16.34
2018-07-15T05:18:50.366Z,16.45
2018-07-15T05:20:50.538Z,16.56
2018-07-15T05:22:50.736Z,16.62
2018-07-15T05:24:50.116Z,16.71
2018-07-15T05:26:50.522Z,16.83
2018-07-15T05:28:50.662Z,16.93
2018-07-15T05:30:50.834Z,17.11
2018-07-15T05:32:49.975Z,17.25
2018-07-15T05:34:50.596Z,17.42
2018-07-15T05:36:50.845Z,17.52
2018-07-15T05:38:49.970Z,17.66
2018-07-15T05:40:50.122Z,17.79
2018-07-15T05:42:50.327Z,17.86
2018-07-15T05:44:50.608Z,17.96
2018-07-15T05:46:49.895Z,18.07
2018-07-15T05:48:50.060Z,18.17
2018-07-15T05:50:50.242Z,18.25
2018-07-15T05:52:50.440Z,18.30
2018-07-15T05:54:50.648Z,18.35
2018-07-15T05:56:49.964Z,18.46
2018-07-15T05:58:50.106Z,18.53
2018-07-15T06:00:50.265Z,18.59
2018-07-15T06:02:50.348Z,18.70
2018-07-15T06:04:50.784Z,18.81
2018-07-15T06:06:50.174Z,18.95
2018-07-15T06:08:50.403Z,19.04
2018-07-15T06:10:51.258Z,19.11
2018-07-15T06:12:50.677Z,19.15
2018-07-15T06:14:49.888Z,19.23
2018-07-15T06:16:50.208Z,19.28
2018-07-15T06:18:50.446Z,19.37
2018-07-15T06:20:50.650Z,19.42
2018-07-15T06:22:51.707Z,19.58
2018-07-15T06:24:50.162Z,19.69
2018-07-15T06:26:50.519Z,19.80
2018-07-15T06:28:50.707Z,19.90
2018-07-15T06:30:49.951Z,20.06
2018-07-15T06:32:50.099Z,20.14
2018-07-15T06:34:50.558Z,20.37
2018-07-15T06:36:49.881Z,20.50
2018-07-15T06:38:50.039Z,20.52
2018-07-15T06:40:50.163Z,20.55
2018-07-15T06:42:50.433Z,20.66
2018-07-15T06:44:50.588Z,20.82
2018-07-15T06:46:50.005Z,20.90
2018-07-15T06:48:50.174Z,21.06
2018-07-15T06:50:50.333Z,21.12
2018-07-15T06:52:50.501Z,21.19
2018-07-15T06:54:50.653Z,21.29
2018-07-15T06:56:49.924Z,21.43
2018-07-15T06:58:50.124Z,21.48
2018-07-15T07:00:50.319Z,21.52
2018-07-15T07:02:50.463Z,21.69
2018-07-15T07:04:49.931Z,21.83
2018-07-15T07:06:50.241Z,21.75
2018-07-15T07:08:50.364Z,21.83
2018-07-15T07:10:50.563Z,21.98
2018-07-15T07:12:50.791Z,22.07
2018-07-15T07:14:49.966Z,22.17
2018-07-15T07:16:50.283Z,22.30
2018-07-15T07:18:50.424Z,22.44
2018-07-15T07:20:50.521Z,22.51
2018-07-15T07:22:49.902Z,22.46
2018-07-15T07:24:50.011Z,22.49
2018-07-15T07:26:50.270Z,22.56
2018-07-15T07:28:50.880Z,22.63
2018-07-15T07:30:50.151Z,22.75
2018-07-15T07:32:50.310Z,22.86
2018-07-15T07:34:50.734Z,23.0
2018-07-15T07:36:50.090Z,23.0
2018-07-15T07:38:50.948Z,23.0
2018-07-15T07:40:50.344Z,23.1
2018-07-15T07:42:50.507Z,23.2
2018-07-15T07:44:50.751Z,23.3
2018-07-15T07:46:50.258Z,23.4
2018-07-15T07:48:50.439Z,23.4
2018-07-15T07:50:50.562Z,23.4
2018-07-15T07:52:50.828Z,23.6
2018-07-15T07:54:50.052Z,23.7
2018-07-15T07:56:50.319Z,23.8
2018-07-15T07:58:50.487Z,23.8
2018-07-15T08:00:50.762Z,24.0
2018-07-15T08:02:49.998Z,24.0
2018-07-15T08:04:50.367Z,24.2
2018-07-15T08:06:50.677Z,24.2
2018-07-15T08:08:49.870Z,24.2
2018-07-15T08:10:50.107Z,24.3
2018-07-15T08:12:50.277Z,24.3
2018-07-15T08:14:50.558Z,24.5
2018-07-15T08:16:50.824Z,24.60
2018-07-15T08:18:49.971Z,24.46
2018-07-15T08:20:50.082Z,24.34
2018-07-15T08:22:50.267Z,24.45
2018-07-15T08:24:50.474Z,24.58
2018-07-15T08:26:49.872Z,24.50
2018-07-15T08:28:50.306Z,24.51
2018-07-15T08:30:50.507Z,24.59
2018-07-15T08:32:50.471Z,24.70
2018-07-15T08:34:49.992Z,24.89
2018-07-15T08:36:50.409Z,25.2
2018-07-15T08:38:50.651Z,25.3
2018-07-15T08:40:50.631Z,25.4
2018-07-15T08:42:50.852Z,25.6
2018-07-15T08:44:50.176Z,25.6
2018-07-15T08:46:50.611Z,25.7
2018-07-15T08:48:50.719Z,25.8
2018-07-15T08:50:49.928Z,25.9
2018-07-15T08:52:50.272Z,25.77
2018-07-15T08:54:50.418Z,25.80
2018-07-15T08:56:50.721Z,25.85
2018-07-15T08:58:50.013Z,26.07
2018-07-15T09:00:50.194Z,26.1
2018-07-15T09:02:50.381Z,26.1
2018-07-15T09:04:50.747Z,26.1
2018-07-15T09:06:50.159Z,26.2
2018-07-15T09:08:50.424Z,26.2
2018-07-15T09:10:50.617Z,26.2
2018-07-15T09:12:50.721Z,26.4
2018-07-15T09:14:49.980Z,26.4
2018-07-15T09:16:50.448Z,26.4
2018-07-15T09:18:50.614Z,26.4
2018-07-15T09:20:50.874Z,26.4
2018-07-15T09:22:50.009Z,26.4
2018-07-15T09:24:50.129Z,26.5
2018-07-15T09:26:50.541Z,26.5
2018-07-15T09:28:50.734Z,26.6
2018-07-15T09:30:49.929Z,26.6
2018-07-15T09:32:50.064Z,26.6
2018-07-15T09:34:50.484Z,26.7
2018-07-15T09:36:50.804Z,26.7
2018-07-15T09:38:50.020Z,26.8
2018-07-15T09:40:50.310Z,26.9
2018-07-15T09:42:50.399Z,26.9
2018-07-15T09:44:50.712Z,27.0
2018-07-15T09:46:49.986Z,27.0
2018-07-15T09:48:50.159Z,27.0
2018-07-15T09:50:50.285Z,27.0
2018-07-15T09:52:50.529Z,27.0
2018-07-15T09:54:50.701Z,27.0
2018-07-15T09:56:50.057Z,27.0
2018-07-15T09:58:50.290Z,27.1
2018-07-15T10:00:50.455Z,27.1
2018-07-15T10:02:50.467Z,27.1
2018-07-15T10:04:49.917Z,27.2
2018-07-15T10:06:50.253Z,27.2
2018-07-15T10:08:50.432Z,27.2
2018-07-15T10:10:50.509Z,27.3
2018-07-15T10:12:50.799Z,27.3
2018-07-15T10:14:49.959Z,27.4
2018-07-15T10:16:50.190Z,27.4
2018-07-15T10:18:50.553Z,27.5
2018-07-15T10:20:50.819Z,27.5
2018-07-15T10:22:49.991Z,27.5
2018-07-15T10:24:50.807Z,27.5
2018-07-15T10:26:50.134Z,27.6
2018-07-15T10:28:50.272Z,27.6
2018-07-15T10:30:50.477Z,27.6
2018-07-15T10:32:50.596Z,27.7
2018-07-15T10:34:50.060Z,27.8
2018-07-15T10:36:50.408Z,27.8
2018-07-15T10:38:50.519Z,27.8
2018-07-15T10:40:50.641Z,27.9
2018-07-15T10:42:49.853Z,27.9
2018-07-15T10:44:50.028Z,28.0
2018-07-15T10:46:50.390Z,28.0
2018-07-15T10:48:50.524Z,28.0
2018-07-15T10:50:50.674Z,28.1
2018-07-15T10:52:50.242Z,28.1
2018-07-15T10:54:50.454Z,28.2
2018-07-15T10:56:50.866Z,28.2
2018-07-15T10:58:50.017Z,28.2
2018-07-15T11:00:50.347Z,28.3
2018-07-15T11:02:50.563Z,28.3
2018-07-15T11:04:49.919Z,28.2
2018-07-15T11:06:50.354Z,28.1
2018-07-15T11:08:50.518Z,28.1
2018-07-15T11:10:50.715Z,28.1
2018-07-15T11:12:50.834Z,28.2
2018-07-15T11:14:49.937Z,28.2
2018-07-15T11:16:50.239Z,28.3
2018-07-15T11:18:50.439Z,28.3
2018-07-15T11:20:50.595Z,28.3
2018-07-15T11:22:50.746Z,28.4
2018-07-15T11:24:49.928Z,28.4
2018-07-15T11:26:50.249Z,28.6
2018-07-15T11:28:50.537Z,28.6
2018-07-15T11:30:51.417Z,28.7
2018-07-15T11:32:50.823Z,28.8
2018-07-15T11:34:50.201Z,28.8
2018-07-15T11:36:50.451Z,28.9
2018-07-15T11:38:50.691Z,29.0
2018-07-15T11:40:49.852Z,29.2
2018-07-15T11:42:50.018Z,29.5
2018-07-15T11:44:50.110Z,29.5
2018-07-15T11:46:50.419Z,29.7
2018-07-15T11:48:50.639Z,29.9
2018-07-15T11:50:50.901Z,30.0
2018-07-15T11:52:50.069Z,30.0
2018-07-15T11:54:50.272Z,30.0
2018-07-15T11:56:50.608Z,30.0
2018-07-15T11:58:50.738Z,30.0
2018-07-15T12:00:49.883Z,29.9
2018-07-15T12:02:50.058Z,29.8
2018-07-15T12:04:50.501Z,29.8
2018-07-15T12:06:50.703Z,29.57
2018-07-15T12:08:49.862Z,29.42
2018-07-15T12:10:50.107Z,28.43
2018-07-15T12:12:50.258Z,27.72
2018-07-15T12:14:50.400Z,26.37
2018-07-15T12:16:50.623Z,25.18
2018-07-15T12:18:50.844Z,24.36
2018-07-15T12:20:49.999Z,23.54
2018-07-15T12:22:50.220Z,23.06
2018-07-15T12:24:50.368Z,22.32
2018-07-15T12:26:50.776Z,21.96
2018-07-15T12:28:49.911Z,21.73
2018-07-15T12:30:50.015Z,21.76
2018-07-15T12:32:50.162Z,21.93
2018-07-15T12:34:50.496Z,22.08
2018-07-15T12:36:49.936Z,22.21
2018-07-15T12:38:50.124Z,22.27
2018-07-15T12:40:50.254Z,22.62
2018-07-15T12:42:50.424Z,23.00
2018-07-15T12:44:50.572Z,23.38
2018-07-15T12:46:50.000Z,23.85
2018-07-15T12:48:50.161Z,24.48
2018-07-15T12:50:50.263Z,25.05
2018-07-15T12:52:50.457Z,25.77
2018-07-15T12:54:50.590Z,26.1
2018-07-15T12:56:49.935Z,26.2
2018-07-15T12:58:50.151Z,26.2
2018-07-15T13:00:50.258Z,26.2
2018-07-15T13:02:50.610Z,26.3
2018-07-15T13:04:49.957Z,26.4
2018-07-15T13:06:50.258Z,26.5
2018-07-15T13:08:50.359Z,26.5
2018-07-15T13:10:50.502Z,26.6
2018-07-15T13:12:50.782Z,26.6
2018-07-15T13:14:49.914Z,26.7
2018-07-15T13:16:50.147Z,26.8
2018-07-15T13:18:50.465Z,27.1
2018-07-15T13:20:50.825Z,27.1
2018-07-15T13:22:49.986Z,27.2
2018-07-15T13:24:50.238Z,27.4
2018-07-15T13:26:50.550Z,27.4
2018-07-15T13:28:50.670Z,27.4
2018-07-15T13:30:49.968Z,27.4
2018-07-15T13:32:50.110Z,27.5
2018-07-15T13:34:50.635Z,27.4
2018-07-15T13:36:49.871Z,27.4
2018-07-15T13:38:49.996Z,27.4
2018-07-15T13:40:50.147Z,27.4
2018-07-15T13:42:50.327Z,27.37
2018-07-15T13:44:50.480Z,27.21
2018-07-15T13:46:50.725Z,26.82
2018-07-15T13:48:50.849Z,26.51
2018-07-15T13:50:50.082Z,26.18
2018-07-15T13:52:50.268Z,26.03
2018-07-15T13:54:50.381Z,26.01
2018-07-15T13:56:50.711Z,25.99
2018-07-15T13:58:49.950Z,25.86
2018-07-15T14:00:50.094Z,25.81
2018-07-15T14:02:50.473Z,25.85
2018-07-15T14:04:50.831Z,25.78
2018-07-15T14:06:50.151Z,25.77
2018-07-15T14:08:50.304Z,25.72
2018-07-15T14:10:50.502Z,25.71
2018-07-15T14:12:50.770Z,25.86
2018-07-15T14:14:49.889Z,26.20
2018-07-15T14:16:50.192Z,26.51
2018-07-15T14:18:50.427Z,27.0
2018-07-15T14:20:50.732Z,27.1
2018-07-15T14:22:49.891Z,27.2
2018-07-15T14:24:50.019Z,27.2
2018-07-15T14:26:50.343Z,27.3
2018-07-15T14:28:50.515Z,27.3
2018-07-15T14:30:50.622Z,27.3
2018-07-15T14:32:50.796Z,27.4
2018-07-15T14:34:50.239Z,27.4
2018-07-15T14:36:50.522Z,27.3
2018-07-15T14:38:50.653Z,27.4
2018-07-15T14:40:50.837Z,27.3
2018-07-15T14:42:50.078Z,27.3
2018-07-15T14:44:50.260Z,27.3
2018-07-15T14:46:50.590Z,27.2
2018-07-15T14:48:50.722Z,27.2
2018-07-15T14:50:49.952Z,27.3
2018-07-15T14:52:50.102Z,27.3
2018-07-15T14:54:50.381Z,27.3
2018-07-15T14:56:50.676Z,27.3
2018-07-15T14:58:50.837Z,27.3
2018-07-15T15:00:50.160Z,27.4
2018-07-15T15:02:50.289Z,27.4
2018-07-15T15:04:50.672Z,27.4
2018-07-15T15:06:49.968Z,27.4
2018-07-15T15:08:50.179Z,27.5
2018-07-15T15:10:50.308Z,27.5
2018-07-15T15:12:50.530Z,27.5
2018-07-15T15:14:50.714Z,27.5
2018-07-15T15:16:50.148Z,27.6
2018-07-15T15:18:50.367Z,27.6
2018-07-15T15:20:50.543Z,27.7
2018-07-15T15:22:50.646Z,27.7
2018-07-15T15:24:50.705Z,27.7
2018-07-15T15:26:50.149Z,27.7
2018-07-15T15:28:50.295Z,27.8
2018-07-15T15:30:50.500Z,27.8
2018-07-15T15:32:50.645Z,27.8
2018-07-15T15:34:50.107Z,27.8
2018-07-15T15:36:50.411Z,27.8
2018-07-15T15:38:50.673Z,27.8
2018-07-15T15:40:49.895Z,27.8
2018-07-15T15:42:50.132Z,27.8
2018-07-15T15:44:51.552Z,27.79
2018-07-15T15:46:50.073Z,27.54
2018-07-15T15:48:50.216Z,26.95
2018-07-15T15:50:50.376Z,26.66
2018-07-15T15:52:50.504Z,26.59
2018-07-15T15:54:50.646Z,26.59
2018-07-15T15:56:50.045Z,26.71
2018-07-15T15:58:50.164Z,26.74
2018-07-15T16:00:50.369Z,26.82
2018-07-15T16:02:50.572Z,26.65
2018-07-15T16:04:49.984Z,26.53
2018-07-15T16:06:50.512Z,26.72
2018-07-15T16:08:50.654Z,27.02
2018-07-15T16:10:50.748Z,26.98
2018-07-15T16:12:50.012Z,27.16
2018-07-15T16:14:50.136Z,27.16
2018-07-15T16:16:50.413Z,27.19
2018-07-15T16:18:50.573Z,27.3
2018-07-15T16:20:50.679Z,27.3
2018-07-15T16:22:50.847Z,27.3
2018-07-15T16:24:49.944Z,27.4
2018-07-15T16:26:50.240Z,27.4
2018-07-15T16:28:50.390Z,27.4
2018-07-15T16:30:50.562Z,27.4
2018-07-15T16:32:50.643Z,27.5
2018-07-15T16:34:50.027Z,27.5
2018-07-15T16:36:50.446Z,27.6
2018-07-15T16:38:50.551Z,27.6
2018-07-15T16:40:50.808Z,27.7
2018-07-15T16:42:49.902Z,27.8
2018-07-15T16:44:50.080Z,27.8
2018-07-15T16:46:50.405Z,27.8
2018-07-15T16:48:50.637Z,27.8
2018-07-15T16:50:50.831Z,27.8
2018-07-15T16:52:49.981Z,27.8
2018-07-15T16:54:50.248Z,27.7
2018-07-15T16:56:50.523Z,27.7
2018-07-15T16:58:50.679Z,27.7
2018-07-15T17:00:49.900Z,27.6
2018-07-15T17:02:50.123Z,27.6
2018-07-15T17:04:50.561Z,27.6
2018-07-15T17:06:51.211Z,27.6
2018-07-15T17:08:50.378Z,27.6
2018-07-15T17:10:50.575Z,27.6
2018-07-15T17:12:50.813Z,27.6
2018-07-15T17:14:49.906Z,27.6
2018-07-15T17:16:50.251Z,27.6
2018-07-15T17:18:50.489Z,27.6
2018-07-15T17:20:50.622Z,27.5
2018-07-15T17:22:50.739Z,27.5
2018-07-15T17:24:49.942Z,27.46
2018-07-15T17:26:50.152Z,27.12
2018-07-15T17:28:50.268Z,27.13
2018-07-15T17:30:50.518Z,27.27
2018-07-15T17:32:50.717Z,27.11
2018-07-15T17:34:50.297Z,26.78
2018-07-15T17:36:50.539Z,26.64
2018-07-15T17:38:50.776Z,26.73
2018-07-15T17:40:50.102Z,26.75
2018-07-15T17:42:50.271Z,26.70
2018-07-15T17:44:50.368Z,26.64
2018-07-15T17:46:50.667Z,26.43
2018-07-15T17:48:50.812Z,26.27
2018-07-15T17:50:49.975Z,26.13
2018-07-15T17:52:50.184Z,26.06
2018-07-15T17:54:50.336Z,25.96
2018-07-15T17:56:50.602Z,25.86
2018-07-15T17:58:50.557Z,25.69
2018-07-15T18:00:49.915Z,25.71
2018-07-15T18:02:50.077Z,25.68
2018-07-15T18:04:51.064Z,25.55
2018-07-15T18:06:50.559Z,25.46
2018-07-15T18:08:50.720Z,25.37
2018-07-15T18:10:50.008Z,25.34
2018-07-15T18:12:50.145Z,25.32
2018-07-15T18:14:50.326Z,25.34
2018-07-15T18:16:50.670Z,25.38
2018-07-15T18:18:50.835Z,25.35
2018-07-15T18:20:50.264Z,25.28
2018-07-15T18:22:50.565Z,25.18
2018-07-15T18:24:50.735Z,25.10
2018-07-15T18:26:50.031Z,25.07
2018-07-15T18:28:50.161Z,24.85
2018-07-15T18:30:50.338Z,24.59
2018-07-15T18:32:50.440Z,24.49
2018-07-15T18:34:50.801Z,24.33
2018-07-15T18:36:50.171Z,24.22
2018-07-15T18:38:50.324Z,24.04
2018-07-15T18:40:50.425Z,23.90
2018-07-15T18:42:50.693Z,23.71
2018-07-15T18:44:51.208Z,23.21
2018-07-15T18:46:50.582Z,22.92
2018-07-15T18:48:49.885Z,22.57
2018-07-15T18:50:50.055Z,22.33
2018-07-15T18:52:50.225Z,22.17
2018-07-15T18:54:50.358Z,22.01
2018-07-15T18:56:50.699Z,21.79
2018-07-15T18:58:49.896Z,21.75
2018-07-15T19:00:50.011Z,21.50
2018-07-15T19:02:50.126Z,21.35
2018-07-15T19:04:50.636Z,21.25
2018-07-15T19:06:50.024Z,21.16
2018-07-15T19:08:50.188Z,21.03
2018-07-15T19:10:50.378Z,20.90
2018-07-15T19:12:50.539Z,20.81
2018-07-15T19:14:50.659Z,20.73
2018-07-15T19:16:50.013Z,20.65
2018-07-15T19:18:50.127Z,20.56
2018-07-15T19:20:50.272Z,20.46
2018-07-15T19:22:50.475Z,20.42
2018-07-15T19:24:50.558Z,20.37
2018-07-15T19:26:49.861Z,20.30
2018-07-15T19:28:50.024Z,20.26
2018-07-15T19:30:50.088Z,20.21
2018-07-15T19:32:50.312Z,20.18
2018-07-15T19:34:49.870Z,20.09
2018-07-15T19:36:50.227Z,20.00
2018-07-15T19:38:50.454Z,19.96
2018-07-15T19:40:50.710Z,19.91
2018-07-15T19:42:49.957Z,19.81
2018-07-15T19:44:50.329Z,19.78
2018-07-15T19:46:50.542Z,19.69
2018-07-15T19:48:50.691Z,19.58
2018-07-15T19:50:49.888Z,19.49
2018-07-15T19:52:49.979Z,19.43
2018-07-15T19:54:50.149Z,19.33
2018-07-15T19:56:50.473Z,19.24
2018-07-15T19:58:50.584Z,19.21
2018-07-15T20:00:50.945Z,19.26
2018-07-15T20:02:50.194Z,19.24
2018-07-15T20:04:50.621Z,19.24
2018-07-15T20:06:50.504Z,19.15
2018-07-15T20:08:50.857Z,19.07
2018-07-15T20:10:50.008Z,18.95
2018-07-15T20:12:50.302Z,18.88
2018-07-15T20:14:50.538Z,18.79
2018-07-15T20:16:49.882Z,18.72
2018-07-15T20:18:49.996Z,18.73
2018-07-15T20:20:50.609Z,18.73
2018-07-15T20:22:49.984Z,18.66
2018-07-15T20:24:50.203Z,18.62
2018-07-15T20:26:50.462Z,18.60
2018-07-15T20:28:50.670Z,18.57
2018-07-15T20:30:50.848Z,18.52
2018-07-15T20:32:49.968Z,18.46
2018-07-15T20:34:50.407Z,18.42
2018-07-15T20:36:50.671Z,18.37
2018-07-15T20:38:50.878Z,18.31
2018-07-15T20:40:50.049Z,18.27
2018-07-15T20:42:50.211Z,18.24
2018-07-15T20:44:50.364Z,18.19
2018-07-15T20:46:50.657Z,18.18
2018-07-15T20:48:49.862Z,18.15
2018-07-15T20:50:50.075Z,18.12
2018-07-15T20:52:50.253Z,18.06
2018-07-15T20:54:50.434Z,18.01
2018-07-15T20:56:50.806Z,17.96
2018-07-15T20:58:49.957Z,17.91
2018-07-15T21:00:50.140Z,17.87
2018-07-15T21:02:50.308Z,17.80
2018-07-15T21:04:50.626Z,17.73
2018-07-15T21:06:49.985Z,17.72
2018-07-15T21:08:50.202Z,17.71
2018-07-15T21:10:50.384Z,17.69
2018-07-15T21:12:50.503Z,17.67
2018-07-15T21:14:50.681Z,17.66
2018-07-15T21:16:49.969Z,17.65
2018-07-15T21:18:50.176Z,17.66
2018-07-15T21:20:50.294Z,17.64
2018-07-15T21:22:50.418Z,17.61
2018-07-15T21:24:50.579Z,17.58
2018-07-15T21:26:50.092Z,17.55
2018-07-15T21:28:50.297Z,17.49
2018-07-15T21:30:50.397Z,17.43
2018-07-15T21:32:50.555Z,17.38
2018-07-15T21:34:50.115Z,17.35
2018-07-15T21:36:50.364Z,17.36
2018-07-15T21:38:50.614Z,17.36
2018-07-15T21:40:50.788Z,17.32
2018-07-15T21:42:50.103Z,17.28
2018-07-15T21:44:50.217Z,17.27
2018-07-15T21:46:50.490Z,17.25
2018-07-15T21:48:50.671Z,17.30
2018-07-15T21:50:50.785Z,17.32
2018-07-15T21:52:49.934Z,17.31
2018-07-15T21:54:50.045Z,17.30
2018-07-15T21:56:50.314Z,17.32
2018-07-15T21:58:50.479Z,17.32
2018-07-15T22:00:50.636Z,17.33
2018-07-15T22:02:50.154Z,17.29
2018-07-15T22:04:50.592Z,17.24
2018-07-15T22:06:49.978Z,17.19
2018-07-15T22:08:50.186Z,17.15
2018-07-15T22:10:50.322Z,17.11
2018-07-15T22:12:50.568Z,17.07
2018-07-15T22:14:50.754Z,17.03
2018-07-15T22:16:50.014Z,17.01
2018-07-15T22:18:50.135Z,16.98
2018-07-15T22:20:50.239Z,16.98
2018-07-15T22:22:50.421Z,16.94
2018-07-15T22:24:50.611Z,16.89
2018-07-15T22:26:49.928Z,16.85
2018-07-15T22:28:50.106Z,16.85
2018-07-15T22:30:50.201Z,16.83
2018-07-15T22:32:50.393Z,16.77
2018-07-15T22:34:50.081Z,16.75
2018-07-15T22:36:50.466Z,16.74
2018-07-15T22:38:50.634Z,16.71
2018-07-15T22:40:49.883Z,16.65
2018-07-15T22:42:49.970Z,16.70
2018-07-15T22:44:50.235Z,16.73
2018-07-15T22:46:50.525Z,16.79
2018-07-15T22:48:50.660Z,16.77
2018-07-15T22:50:50.751Z,16.70
2018-07-15T22:52:49.941Z,16.63
2018-07-15T22:54:50.147Z,16.58
2018-07-15T22:56:50.460Z,16.52
2018-07-15T22:58:50.601Z,16.50
2018-07-15T23:00:50.860Z,16.50
2018-07-15T23:02:50.093Z,16.44
2018-07-15T23:04:50.602Z,16.40
2018-07-15T23:06:49.894Z,16.39
2018-07-15T23:08:50.045Z,16.36
2018-07-15T23:10:50.208Z,16.34
2018-07-15T23:12:50.536Z,16.30
2018-07-15T23:14:50.607Z,16.28
2018-07-15T23:16:49.886Z,16.28
2018-07-15T23:18:50.029Z,16.26
2018-07-15T23:20:50.205Z,16.24
2018-07-15T23:22:50.432Z,16.21
2018-07-15T23:24:50.538Z,16.17
2018-07-15T23:26:49.957Z,16.14
2018-07-15T23:28:50.133Z,16.10
2018-07-15T23:30:50.306Z,16.06
2018-07-15T23:32:50.502Z,16.03
2018-07-15T23:34:49.913Z,16.01
2018-07-15T23:36:50.282Z,15.97
2018-07-15T23:38:50.587Z,15.96
2018-07-15T23:40:50.731Z,15.93
2018-07-15T23:42:50.846Z,15.91
2018-07-15T23:44:49.945Z,15.88
2018-07-15T23:46:50.434Z,15.90
2018-07-15T23:48:50.792Z,15.88
2018-07-15T23:50:49.945Z,15.84
2018-07-15T23:52:50.136Z,15.82
2018-07-15T23:54:50.347Z,15.81
2018-07-15T23:56:50.555Z,15.79
2018-07-15T23:58:50.651Z,15.79
